sensor_id;sensor_type;location;lat;lon;timestamp;P1;durP1;ratioP1;P2;durP2;ratioP2
46719;SDS011;32452;51.382;-0.002;2023-04-06T00:02:35;21.92;;;12.70;;
46719;SDS011;32452;51.382;-0.002;2023-04-06T00:05:21;21.75;;;12.70;;
46719;SDS011;32452;51.382;-0.002;2023-04-06T00:08:07;23.00;;;13.27;;
46719;SDS011;32452;51.382;-0.002;2023-04-06T00:10:53;22.90;;;12.90;;
46719;SDS011;32452;51.382;-0.002;2023-04-06T00:13:38;22.98;;;12.80;;
46719;SDS011;32452;51.382;-0.002;2023-04-06T00:16:24;24.50;;;12.93;;
46719;SDS011;32452;51.382;-0.002;2023-04-06T00:19:13;21.85;;;12.25;;
46719;SDS011;32452;51.382;-0.002;2023-04-06T00:21:58;23.30;;;12.18;;
46719;SDS011;32452;51.382;-0.002;2023-04-06T00:24:44;19.50;;;11.60;;
46719;SDS011;32452;51.382;-0.002;2023-04-06T00:27:30;19.13;;;10.95;;
46719;SDS011;32452;51.382;-0.002;2023-04-06T00:30:15;18.67;;;11.23;;
46719;SDS011;32452;51.382;-0.002;2023-04-06T00:33:01;16.05;;;9.15;;
46719;SDS011;32452;51.382;-0.002;2023-04-06T00:35:47;14.30;;;8.55;;
46719;SDS011;32452;51.382;-0.002;2023-04-06T00:38:32;14.80;;;8.65;;
46719;SDS011;32452;51.382;-0.002;2023-04-06T00:41:18;13.45;;;7.75;;
46719;SDS011;32452;51.382;-0.002;2023-04-06T00:44:05;13.15;;;7.57;;
46719;SDS011;32452;51.382;-0.002;2023-04-06T00:46:50;13.27;;;6.85;;
46719;SDS011;32452;51.382;-0.002;2023-04-06T00:49:36;11.73;;;5.93;;
46719;SDS011;32452;51.382;-0.002;2023-04-06T00:52:22;8.80;;;5.00;;
46719;SDS011;32452;51.382;-0.002;2023-04-06T00:55:07;10.35;;;6.10;;
46719;SDS011;32452;51.382;-0.002;2023-04-06T00:57:54;8.85;;;4.93;;
46719;SDS011;32452;51.382;-0.002;2023-04-06T01:00:41;8.23;;;4.80;;
46719;SDS011;32452;51.382;-0.002;2023-04-06T01:03:27;7.43;;;4.32;;
46719;SDS011;32452;51.382;-0.002;2023-04-06T01:06:12;7.93;;;4.93;;
46719;SDS011;32452;51.382;-0.002;2023-04-06T01:08:58;7.22;;;4.38;;
46719;SDS011;32452;51.382;-0.002;2023-04-06T01:11:44;9.35;;;4.57;;
46719;SDS011;32452;51.382;-0.002;2023-04-06T01:14:30;7.80;;;3.97;;
46719;SDS011;32452;51.382;-0.002;2023-04-06T01:17:16;7.88;;;4.60;;
46719;SDS011;32452;51.382;-0.002;2023-04-06T01:20:02;6.38;;;4.05;;
46719;SDS011;32452;51.382;-0.002;2023-04-06T01:22:48;7.05;;;4.10;;
46719;SDS011;32452;51.382;-0.002;2023-04-06T01:25:33;7.25;;;4.13;;
46719;SDS011;32452;51.382;-0.002;2023-04-06T01:28:19;5.93;;;4.00;;
46719;SDS011;32452;51.382;-0.002;2023-04-06T01:31:08;6.80;;;3.97;;
46719;SDS011;32452;51.382;-0.002;2023-04-06T01:33:55;6.38;;;3.78;;
46719;SDS011;32452;51.382;-0.002;2023-04-06T01:36:41;6.30;;;3.15;;
46719;SDS011;32452;51.382;-0.002;2023-04-06T01:39:26;7.75;;;3.55;;
46719;SDS011;32452;51.382;-0.002;2023-04-06T01:42:12;6.68;;;3.90;;
46719;SDS011;32452;51.382;-0.002;2023-04-06T01:44:57;5.95;;;3.42;;
46719;SDS011;32452;51.382;-0.002;2023-04-06T01:47:43;7.25;;;4.00;;
46719;SDS011;32452;51.382;-0.002;2023-04-06T01:50:28;6.07;;;3.50;;
46719;SDS011;32452;51.382;-0.002;2023-04-06T01:53:14;5.38;;;3.45;;
46719;SDS011;32452;51.382;-0.002;2023-04-06T01:56:00;6.28;;;3.78;;
46719;SDS011;32452;51.382;-0.002;2023-04-06T01:58:46;5.90;;;3.65;;
46719;SDS011;32452;51.382;-0.002;2023-04-06T02:01:32;5.22;;;2.95;;
46719;SDS011;32452;51.382;-0.002;2023-04-06T02:04:17;5.95;;;3.40;;
46719;SDS011;32452;51.382;-0.002;2023-04-06T02:07:03;4.13;;;3.08;;
46719;SDS011;32452;51.382;-0.002;2023-04-06T02:09:50;5.18;;;3.35;;
46719;SDS011;32452;51.382;-0.002;2023-04-06T02:12:38;4.95;;;2.75;;
46719;SDS011;32452;51.382;-0.002;2023-04-06T02:15:24;4.55;;;3.10;;
46719;SDS011;32452;51.382;-0.002;2023-04-06T02:18:10;4.05;;;2.55;;
46719;SDS011;32452;51.382;-0.002;2023-04-06T02:20:55;4.75;;;3.03;;
46719;SDS011;32452;51.382;-0.002;2023-04-06T02:23:41;4.78;;;2.60;;
46719;SDS011;32452;51.382;-0.002;2023-04-06T02:26:26;4.75;;;2.85;;
46719;SDS011;32452;51.382;-0.002;2023-04-06T02:29:12;4.38;;;2.65;;
46719;SDS011;32452;51.382;-0.002;2023-04-06T02:31:58;5.10;;;2.85;;
46719;SDS011;32452;51.382;-0.002;2023-04-06T02:34:43;5.72;;;2.85;;
46719;SDS011;32452;51.382;-0.002;2023-04-06T02:37:29;5.13;;;3.20;;
46719;SDS011;32452;51.382;-0.002;2023-04-06T02:40:14;5.22;;;2.90;;
46719;SDS011;32452;51.382;-0.002;2023-04-06T02:43:00;5.85;;;3.55;;
46719;SDS011;32452;51.382;-0.002;2023-04-06T02:45:45;5.10;;;3.10;;
46719;SDS011;32452;51.382;-0.002;2023-04-06T02:48:31;6.65;;;4.00;;
46719;SDS011;32452;51.382;-0.002;2023-04-06T02:51:16;5.70;;;3.47;;
46719;SDS011;32452;51.382;-0.002;2023-04-06T02:54:02;5.40;;;3.15;;
46719;SDS011;32452;51.382;-0.002;2023-04-06T02:56:47;4.55;;;2.60;;
46719;SDS011;32452;51.382;-0.002;2023-04-06T02:59:33;7.38;;;3.25;;
46719;SDS011;32452;51.382;-0.002;2023-04-06T03:02:18;4.65;;;2.70;;
46719;SDS011;32452;51.382;-0.002;2023-04-06T03:05:04;4.65;;;2.55;;
46719;SDS011;32452;51.382;-0.002;2023-04-06T03:07:50;3.47;;;1.98;;
46719;SDS011;32452;51.382;-0.002;2023-04-06T03:10:36;3.30;;;1.90;;
46719;SDS011;32452;51.382;-0.002;2023-04-06T03:13:21;2.17;;;1.42;;
46719;SDS011;32452;51.382;-0.002;2023-04-06T03:16:07;2.60;;;1.50;;
46719;SDS011;32452;51.382;-0.002;2023-04-06T03:18:52;2.50;;;1.42;;
46719;SDS011;32452;51.382;-0.002;2023-04-06T03:21:38;2.22;;;1.40;;
46719;SDS011;32452;51.382;-0.002;2023-04-06T03:24:23;2.42;;;1.33;;
46719;SDS011;32452;51.382;-0.002;2023-04-06T03:27:10;1.35;;;1.10;;
46719;SDS011;32452;51.382;-0.002;2023-04-06T03:29:55;1.52;;;1.08;;
46719;SDS011;32452;51.382;-0.002;2023-04-06T03:32:41;2.90;;;1.00;;
46719;SDS011;32452;51.382;-0.002;2023-04-06T03:35:26;1.35;;;1.00;;
46719;SDS011;32452;51.382;-0.002;2023-04-06T03:38:12;3.20;;;1.30;;
46719;SDS011;32452;51.382;-0.002;2023-04-06T03:40:58;1.58;;;1.27;;
46719;SDS011;32452;51.382;-0.002;2023-04-06T03:43:43;3.20;;;1.50;;
46719;SDS011;32452;51.382;-0.002;2023-04-06T03:46:29;3.75;;;1.75;;
46719;SDS011;32452;51.382;-0.002;2023-04-06T03:49:15;3.88;;;2.08;;
46719;SDS011;32452;51.382;-0.002;2023-04-06T03:52:00;2.47;;;2.00;;
46719;SDS011;32452;51.382;-0.002;2023-04-06T03:54:46;3.40;;;2.20;;
46719;SDS011;32452;51.382;-0.002;2023-04-06T03:57:32;4.82;;;2.65;;
46719;SDS011;32452;51.382;-0.002;2023-04-06T04:00:17;6.60;;;3.28;;
46719;SDS011;32452;51.382;-0.002;2023-04-06T04:03:03;4.57;;;3.28;;
46719;SDS011;32452;51.382;-0.002;2023-04-06T04:05:48;6.70;;;4.10;;
46719;SDS011;32452;51.382;-0.002;2023-04-06T04:08:35;7.03;;;4.47;;
46719;SDS011;32452;51.382;-0.002;2023-04-06T04:11:20;7.97;;;5.43;;
46719;SDS011;32452;51.382;-0.002;2023-04-06T04:14:06;8.55;;;5.05;;
46719;SDS011;32452;51.382;-0.002;2023-04-06T04:16:52;8.75;;;5.00;;
46719;SDS011;32452;51.382;-0.002;2023-04-06T04:19:37;9.40;;;5.72;;
46719;SDS011;32452;51.382;-0.002;2023-04-06T04:22:23;9.02;;;5.38;;
46719;SDS011;32452;51.382;-0.002;2023-04-06T04:25:09;10.55;;;5.97;;
46719;SDS011;32452;51.382;-0.002;2023-04-06T04:27:54;12.48;;;6.22;;
46719;SDS011;32452;51.382;-0.002;2023-04-06T04:30:40;9.68;;;5.32;;
46719;SDS011;32452;51.382;-0.002;2023-04-06T04:33:26;10.40;;;5.93;;
46719;SDS011;32452;51.382;-0.002;2023-04-06T04:36:11;9.52;;;5.90;;
46719;SDS011;32452;51.382;-0.002;2023-04-06T04:38:57;11.10;;;6.45;;
46719;SDS011;32452;51.382;-0.002;2023-04-06T04:41:43;12.68;;;7.28;;
46719;SDS011;32452;51.382;-0.002;2023-04-06T04:44:29;11.38;;;6.82;;
46719;SDS011;32452;51.382;-0.002;2023-04-06T04:47:14;11.65;;;7.10;;
46719;SDS011;32452;51.382;-0.002;2023-04-06T04:50:00;12.02;;;7.03;;
46719;SDS011;32452;51.382;-0.002;2023-04-06T04:52:46;11.52;;;7.00;;
46719;SDS011;32452;51.382;-0.002;2023-04-06T04:55:31;12.00;;;7.35;;
46719;SDS011;32452;51.382;-0.002;2023-04-06T04:58:17;12.65;;;7.43;;
46719;SDS011;32452;51.382;-0.002;2023-04-06T05:01:04;12.40;;;7.32;;
46719;SDS011;32452;51.382;-0.002;2023-04-06T05:03:50;13.38;;;8.02;;
46719;SDS011;32452;51.382;-0.002;2023-04-06T05:06:35;12.02;;;7.30;;
46719;SDS011;32452;51.382;-0.002;2023-04-06T05:09:21;12.65;;;7.38;;
46719;SDS011;32452;51.382;-0.002;2023-04-06T05:12:07;15.07;;;8.80;;
46719;SDS011;32452;51.382;-0.002;2023-04-06T05:14:54;12.80;;;7.32;;
46719;SDS011;32452;51.382;-0.002;2023-04-06T05:17:40;11.57;;;6.97;;
46719;SDS011;32452;51.382;-0.002;2023-04-06T05:20:26;11.80;;;6.13;;
46719;SDS011;32452;51.382;-0.002;2023-04-06T05:23:12;14.68;;;8.10;;
46719;SDS011;32452;51.382;-0.002;2023-04-06T05:25:58;12.25;;;7.68;;
46719;SDS011;32452;51.382;-0.002;2023-04-06T05:28:43;14.00;;;7.88;;
46719;SDS011;32452;51.382;-0.002;2023-04-06T05:31:29;15.45;;;8.43;;
46719;SDS011;32452;51.382;-0.002;2023-04-06T05:34:15;15.93;;;8.15;;
46719;SDS011;32452;51.382;-0.002;2023-04-06T05:37:00;17.25;;;8.90;;
46719;SDS011;32452;51.382;-0.002;2023-04-06T05:39:46;15.13;;;8.60;;
46719;SDS011;32452;51.382;-0.002;2023-04-06T05:42:38;15.40;;;8.68;;
46719;SDS011;32452;51.382;-0.002;2023-04-06T05:45:25;17.67;;;9.10;;
46719;SDS011;32452;51.382;-0.002;2023-04-06T05:48:11;17.35;;;10.13;;
46719;SDS011;32452;51.382;-0.002;2023-04-06T05:50:57;18.55;;;9.20;;
46719;SDS011;32452;51.382;-0.002;2023-04-06T05:53:44;15.68;;;8.32;;
46719;SDS011;32452;51.382;-0.002;2023-04-06T05:56:30;18.88;;;10.48;;
46719;SDS011;32452;51.382;-0.002;2023-04-06T05:59:17;20.23;;;10.57;;
46719;SDS011;32452;51.382;-0.002;2023-04-06T06:02:03;16.33;;;9.40;;
46719;SDS011;32452;51.382;-0.002;2023-04-06T06:04:48;23.40;;;11.60;;
46719;SDS011;32452;51.382;-0.002;2023-04-06T06:07:34;19.95;;;11.45;;
46719;SDS011;32452;51.382;-0.002;2023-04-06T06:10:20;19.88;;;10.23;;
46719;SDS011;32452;51.382;-0.002;2023-04-06T06:13:05;17.45;;;9.18;;
46719;SDS011;32452;51.382;-0.002;2023-04-06T06:15:51;18.45;;;10.38;;
46719;SDS011;32452;51.382;-0.002;2023-04-06T06:18:37;21.15;;;9.77;;
46719;SDS011;32452;51.382;-0.002;2023-04-06T06:21:22;18.85;;;9.73;;
46719;SDS011;32452;51.382;-0.002;2023-04-06T06:24:08;16.23;;;9.43;;
46719;SDS011;32452;51.382;-0.002;2023-04-06T06:26:53;18.77;;;10.05;;
46719;SDS011;32452;51.382;-0.002;2023-04-06T06:29:39;16.08;;;8.23;;
46719;SDS011;32452;51.382;-0.002;2023-04-06T06:32:24;16.60;;;9.48;;
46719;SDS011;32452;51.382;-0.002;2023-04-06T06:35:10;15.70;;;8.65;;
46719;SDS011;32452;51.382;-0.002;2023-04-06T06:37:55;15.32;;;8.73;;
46719;SDS011;32452;51.382;-0.002;2023-04-06T06:40:41;14.32;;;8.30;;
46719;SDS011;32452;51.382;-0.002;2023-04-06T06:43:27;16.30;;;8.77;;
46719;SDS011;32452;51.382;-0.002;2023-04-06T06:46:12;14.70;;;7.32;;
46719;SDS011;32452;51.382;-0.002;2023-04-06T06:48:58;10.77;;;5.88;;
46719;SDS011;32452;51.382;-0.002;2023-04-06T06:51:44;11.40;;;5.43;;
46719;SDS011;32452;51.382;-0.002;2023-04-06T06:54:30;10.55;;;5.38;;
46719;SDS011;32452;51.382;-0.002;2023-04-06T06:57:16;11.77;;;5.80;;
46719;SDS011;32452;51.382;-0.002;2023-04-06T07:00:01;9.68;;;5.00;;
46719;SDS011;32452;51.382;-0.002;2023-04-06T07:02:50;11.85;;;5.43;;
46719;SDS011;32452;51.382;-0.002;2023-04-06T07:05:35;11.15;;;5.75;;
46719;SDS011;32452;51.382;-0.002;2023-04-06T07:08:23;13.00;;;6.05;;
46719;SDS011;32452;51.382;-0.002;2023-04-06T07:11:09;12.80;;;6.30;;
46719;SDS011;32452;51.382;-0.002;2023-04-06T07:13:55;10.85;;;5.57;;
46719;SDS011;32452;51.382;-0.002;2023-04-06T07:16:40;9.75;;;5.97;;
46719;SDS011;32452;51.382;-0.002;2023-04-06T07:19:26;11.70;;;6.07;;
46719;SDS011;32452;51.382;-0.002;2023-04-06T07:22:12;9.63;;;5.35;;
46719;SDS011;32452;51.382;-0.002;2023-04-06T07:24:57;9.68;;;5.03;;
46719;SDS011;32452;51.382;-0.002;2023-04-06T07:27:44;9.07;;;4.80;;
46719;SDS011;32452;51.382;-0.002;2023-04-06T07:30:30;8.15;;;3.67;;
46719;SDS011;32452;51.382;-0.002;2023-04-06T07:33:16;7.07;;;3.90;;
46719;SDS011;32452;51.382;-0.002;2023-04-06T07:36:02;7.45;;;4.07;;
46719;SDS011;32452;51.382;-0.002;2023-04-06T07:38:48;6.03;;;3.10;;
46719;SDS011;32452;51.382;-0.002;2023-04-06T07:41:34;5.78;;;3.30;;
46719;SDS011;32452;51.382;-0.002;2023-04-06T07:44:27;6.03;;;3.28;;
46719;SDS011;32452;51.382;-0.002;2023-04-06T07:47:13;5.65;;;3.17;;
46719;SDS011;32452;51.382;-0.002;2023-04-06T07:50:00;5.93;;;3.50;;
46719;SDS011;32452;51.382;-0.002;2023-04-06T07:52:47;4.57;;;2.92;;
46719;SDS011;32452;51.382;-0.002;2023-04-06T07:55:32;6.03;;;2.55;;
46719;SDS011;32452;51.382;-0.002;2023-04-06T07:58:18;3.78;;;2.30;;
46719;SDS011;32452;51.382;-0.002;2023-04-06T08:01:04;6.97;;;3.08;;
46719;SDS011;32452;51.382;-0.002;2023-04-06T08:03:50;6.10;;;2.40;;
46719;SDS011;32452;51.382;-0.002;2023-04-06T08:06:36;5.60;;;2.10;;
46719;SDS011;32452;51.382;-0.002;2023-04-06T08:09:26;5.70;;;1.80;;
46719;SDS011;32452;51.382;-0.002;2023-04-06T08:12:12;4.25;;;2.10;;
46719;SDS011;32452;51.382;-0.002;2023-04-06T08:14:58;5.55;;;2.00;;
46719;SDS011;32452;51.382;-0.002;2023-04-06T08:17:47;8.85;;;2.35;;
46719;SDS011;32452;51.382;-0.002;2023-04-06T08:20:32;5.47;;;1.85;;
46719;SDS011;32452;51.382;-0.002;2023-04-06T08:23:18;6.93;;;2.00;;
46719;SDS011;32452;51.382;-0.002;2023-04-06T08:26:04;7.22;;;2.15;;
46719;SDS011;32452;51.382;-0.002;2023-04-06T08:28:50;8.85;;;2.03;;
46719;SDS011;32452;51.382;-0.002;2023-04-06T08:31:36;11.20;;;2.13;;
46719;SDS011;32452;51.382;-0.002;2023-04-06T08:34:22;9.43;;;2.10;;
46719;SDS011;32452;51.382;-0.002;2023-04-06T08:37:07;8.88;;;2.78;;
46719;SDS011;32452;51.382;-0.002;2023-04-06T08:39:53;9.05;;;2.45;;
46719;SDS011;32452;51.382;-0.002;2023-04-06T08:42:39;6.60;;;2.00;;
46719;SDS011;32452;51.382;-0.002;2023-04-06T08:45:26;7.57;;;2.60;;
46719;SDS011;32452;51.382;-0.002;2023-04-06T08:48:12;10.88;;;1.77;;
46719;SDS011;32452;51.382;-0.002;2023-04-06T08:50:58;6.75;;;2.17;;
46719;SDS011;32452;51.382;-0.002;2023-04-06T08:53:44;11.30;;;2.20;;
46719;SDS011;32452;51.382;-0.002;2023-04-06T08:56:31;8.32;;;1.95;;
46719;SDS011;32452;51.382;-0.002;2023-04-06T08:59:23;5.88;;;2.15;;
46719;SDS011;32452;51.382;-0.002;2023-04-06T09:02:11;7.85;;;1.90;;
46719;SDS011;32452;51.382;-0.002;2023-04-06T09:05:02;9.10;;;1.98;;
46719;SDS011;32452;51.382;-0.002;2023-04-06T09:07:48;7.10;;;2.30;;
46719;SDS011;32452;51.382;-0.002;2023-04-06T09:10:33;8.48;;;1.73;;
46719;SDS011;32452;51.382;-0.002;2023-04-06T09:13:19;6.32;;;2.00;;
46719;SDS011;32452;51.382;-0.002;2023-04-06T09:16:05;11.68;;;1.92;;
46719;SDS011;32452;51.382;-0.002;2023-04-06T09:18:52;8.27;;;1.80;;
46719;SDS011;32452;51.382;-0.002;2023-04-06T09:21:38;11.38;;;1.83;;
46719;SDS011;32452;51.382;-0.002;2023-04-06T09:24:25;15.45;;;2.30;;
46719;SDS011;32452;51.382;-0.002;2023-04-06T09:27:11;11.27;;;2.75;;
46719;SDS011;32452;51.382;-0.002;2023-04-06T09:30:04;13.05;;;2.47;;
46719;SDS011;32452;51.382;-0.002;2023-04-06T09:32:51;10.27;;;1.95;;
46719;SDS011;32452;51.382;-0.002;2023-04-06T09:35:39;11.70;;;2.38;;
46719;SDS011;32452;51.382;-0.002;2023-04-06T09:38:33;9.88;;;2.15;;
46719;SDS011;32452;51.382;-0.002;2023-04-06T09:41:32;8.13;;;2.33;;
46719;SDS011;32452;51.382;-0.002;2023-04-06T09:44:19;9.65;;;2.35;;
46719;SDS011;32452;51.382;-0.002;2023-04-06T09:47:06;11.15;;;2.58;;
46719;SDS011;32452;51.382;-0.002;2023-04-06T09:49:57;12.77;;;3.47;;
46719;SDS011;32452;51.382;-0.002;2023-04-06T09:52:48;9.40;;;2.53;;
46719;SDS011;32452;51.382;-0.002;2023-04-06T09:55:37;14.35;;;3.33;;
46719;SDS011;32452;51.382;-0.002;2023-04-06T09:58:27;9.35;;;2.50;;
46719;SDS011;32452;51.382;-0.002;2023-04-06T10:01:17;13.00;;;3.50;;
46719;SDS011;32452;51.382;-0.002;2023-04-06T10:04:10;10.95;;;2.72;;
46719;SDS011;32452;51.382;-0.002;2023-04-06T10:07:06;14.27;;;2.60;;
46719;SDS011;32452;51.382;-0.002;2023-04-06T10:09:54;8.88;;;2.70;;
46719;SDS011;32452;51.382;-0.002;2023-04-06T10:12:40;11.32;;;2.88;;
46719;SDS011;32452;51.382;-0.002;2023-04-06T10:15:28;9.23;;;2.83;;
46719;SDS011;32452;51.382;-0.002;2023-04-06T10:18:17;11.35;;;2.92;;
46719;SDS011;32452;51.382;-0.002;2023-04-06T10:21:12;6.60;;;2.13;;
46719;SDS011;32452;51.382;-0.002;2023-04-06T10:24:01;6.20;;;2.35;;
46719;SDS011;32452;51.382;-0.002;2023-04-06T10:27:02;13.82;;;2.40;;
46719;SDS011;32452;51.382;-0.002;2023-04-06T10:29:48;11.80;;;2.45;;
46719;SDS011;32452;51.382;-0.002;2023-04-06T10:32:37;9.90;;;2.00;;
46719;SDS011;32452;51.382;-0.002;2023-04-06T10:35:24;7.03;;;1.70;;
46719;SDS011;32452;51.382;-0.002;2023-04-06T10:38:21;6.13;;;2.10;;
46719;SDS011;32452;51.382;-0.002;2023-04-06T10:41:17;6.10;;;2.00;;
46719;SDS011;32452;51.382;-0.002;2023-04-06T10:44:02;10.00;;;2.55;;
46719;SDS011;32452;51.382;-0.002;2023-04-06T10:46:52;6.75;;;1.90;;
46719;SDS011;32452;51.382;-0.002;2023-04-06T10:49:40;9.90;;;2.45;;
46719;SDS011;32452;51.382;-0.002;2023-04-06T10:52:26;5.97;;;1.60;;
46719;SDS011;32452;51.382;-0.002;2023-04-06T10:55:12;8.30;;;1.90;;
46719;SDS011;32452;51.382;-0.002;2023-04-06T10:57:59;6.03;;;1.85;;
46719;SDS011;32452;51.382;-0.002;2023-04-06T11:00:48;6.00;;;1.40;;
46719;SDS011;32452;51.382;-0.002;2023-04-06T11:03:42;2.83;;;1.35;;
46719;SDS011;32452;51.382;-0.002;2023-04-06T11:06:31;6.15;;;1.42;;
46719;SDS011;32452;51.382;-0.002;2023-04-06T11:09:27;9.25;;;1.98;;
46719;SDS011;32452;51.382;-0.002;2023-04-06T11:12:20;6.95;;;1.98;;
46719;SDS011;32452;51.382;-0.002;2023-04-06T11:15:07;5.65;;;1.85;;
46719;SDS011;32452;51.382;-0.002;2023-04-06T11:17:53;5.75;;;1.80;;
46719;SDS011;32452;51.382;-0.002;2023-04-06T11:20:39;7.13;;;1.77;;
46719;SDS011;32452;51.382;-0.002;2023-04-06T11:23:25;6.20;;;1.70;;
46719;SDS011;32452;51.382;-0.002;2023-04-06T11:26:11;6.60;;;1.40;;
46719;SDS011;32452;51.382;-0.002;2023-04-06T11:28:58;6.10;;;1.88;;
46719;SDS011;32452;51.382;-0.002;2023-04-06T11:31:47;9.32;;;1.90;;
46719;SDS011;32452;51.382;-0.002;2023-04-06T11:34:36;7.20;;;1.58;;
46719;SDS011;32452;51.382;-0.002;2023-04-06T11:37:25;6.28;;;2.10;;
46719;SDS011;32452;51.382;-0.002;2023-04-06T11:40:13;3.78;;;1.58;;
46719;SDS011;32452;51.382;-0.002;2023-04-06T11:42:58;6.90;;;1.95;;
46719;SDS011;32452;51.382;-0.002;2023-04-06T11:45:44;5.60;;;1.67;;
46719;SDS011;32452;51.382;-0.002;2023-04-06T11:48:30;3.85;;;1.15;;
46719;SDS011;32452;51.382;-0.002;2023-04-06T11:51:22;7.53;;;1.90;;
46719;SDS011;32452;51.382;-0.002;2023-04-06T11:54:12;6.93;;;1.23;;
46719;SDS011;32452;51.382;-0.002;2023-04-06T11:56:57;2.95;;;1.50;;
46719;SDS011;32452;51.382;-0.002;2023-04-06T11:59:43;8.40;;;1.70;;
46719;SDS011;32452;51.382;-0.002;2023-04-06T12:02:28;7.10;;;1.48;;
46719;SDS011;32452;51.382;-0.002;2023-04-06T12:05:14;4.25;;;1.95;;
46719;SDS011;32452;51.382;-0.002;2023-04-06T12:08:00;4.90;;;1.48;;
46719;SDS011;32452;51.382;-0.002;2023-04-06T12:10:48;5.65;;;1.48;;
46719;SDS011;32452;51.382;-0.002;2023-04-06T12:13:34;5.25;;;1.27;;
46719;SDS011;32452;51.382;-0.002;2023-04-06T12:16:19;5.30;;;1.17;;
46719;SDS011;32452;51.382;-0.002;2023-04-06T12:19:05;4.25;;;1.30;;
46719;SDS011;32452;51.382;-0.002;2023-04-06T12:21:52;4.82;;;1.15;;
46719;SDS011;32452;51.382;-0.002;2023-04-06T12:24:39;5.18;;;1.38;;
46719;SDS011;32452;51.382;-0.002;2023-04-06T12:27:25;3.38;;;1.52;;
46719;SDS011;32452;51.382;-0.002;2023-04-06T12:30:11;1.70;;;0.82;;
46719;SDS011;32452;51.382;-0.002;2023-04-06T12:32:57;4.47;;;1.40;;
46719;SDS011;32452;51.382;-0.002;2023-04-06T12:35:43;6.88;;;1.23;;
46719;SDS011;32452;51.382;-0.002;2023-04-06T12:38:28;2.88;;;1.02;;
46719;SDS011;32452;51.382;-0.002;2023-04-06T12:41:15;3.53;;;1.67;;
46719;SDS011;32452;51.382;-0.002;2023-04-06T12:44:00;3.90;;;1.10;;
46719;SDS011;32452;51.382;-0.002;2023-04-06T12:46:47;3.42;;;0.85;;
46719;SDS011;32452;51.382;-0.002;2023-04-06T12:49:33;4.53;;;1.25;;
46719;SDS011;32452;51.382;-0.002;2023-04-06T12:52:18;3.55;;;0.88;;
46719;SDS011;32452;51.382;-0.002;2023-04-06T12:55:04;3.55;;;0.80;;
46719;SDS011;32452;51.382;-0.002;2023-04-06T12:57:51;2.65;;;1.13;;
46719;SDS011;32452;51.382;-0.002;2023-04-06T13:00:39;6.45;;;1.10;;
46719;SDS011;32452;51.382;-0.002;2023-04-06T13:03:25;4.40;;;1.30;;
46719;SDS011;32452;51.382;-0.002;2023-04-06T13:06:10;5.25;;;1.08;;
46719;SDS011;32452;51.382;-0.002;2023-04-06T13:08:56;4.93;;;0.90;;
46719;SDS011;32452;51.382;-0.002;2023-04-06T13:11:42;4.10;;;0.98;;
46719;SDS011;32452;51.382;-0.002;2023-04-06T13:14:27;5.30;;;1.10;;
46719;SDS011;32452;51.382;-0.002;2023-04-06T13:17:13;2.38;;;0.90;;
46719;SDS011;32452;51.382;-0.002;2023-04-06T13:20:00;3.80;;;1.00;;
46719;SDS011;32452;51.382;-0.002;2023-04-06T13:22:45;4.50;;;1.23;;
46719;SDS011;32452;51.382;-0.002;2023-04-06T13:25:31;1.25;;;0.60;;
46719;SDS011;32452;51.382;-0.002;2023-04-06T13:28:17;5.32;;;1.65;;
46719;SDS011;32452;51.382;-0.002;2023-04-06T13:31:03;2.22;;;1.05;;
46719;SDS011;32452;51.382;-0.002;2023-04-06T13:33:49;2.88;;;0.90;;
46719;SDS011;32452;51.382;-0.002;2023-04-06T13:36:34;5.38;;;1.10;;
46719;SDS011;32452;51.382;-0.002;2023-04-06T13:39:20;3.45;;;0.90;;
46719;SDS011;32452;51.382;-0.002;2023-04-06T13:42:05;3.60;;;0.95;;
46719;SDS011;32452;51.382;-0.002;2023-04-06T13:44:51;6.22;;;1.45;;
46719;SDS011;32452;51.382;-0.002;2023-04-06T13:47:38;1.75;;;0.98;;
46719;SDS011;32452;51.382;-0.002;2023-04-06T13:50:27;4.45;;;1.30;;
46719;SDS011;32452;51.382;-0.002;2023-04-06T13:53:13;8.13;;;2.03;;
46719;SDS011;32452;51.382;-0.002;2023-04-06T13:55:58;9.00;;;1.33;;
46719;SDS011;32452;51.382;-0.002;2023-04-06T13:58:44;11.32;;;1.63;;
46719;SDS011;32452;51.382;-0.002;2023-04-06T14:01:30;8.27;;;1.52;;
46719;SDS011;32452;51.382;-0.002;2023-04-06T14:04:15;7.45;;;1.58;;
46719;SDS011;32452;51.382;-0.002;2023-04-06T14:07:01;2.47;;;0.85;;
46719;SDS011;32452;51.382;-0.002;2023-04-06T14:09:50;3.53;;;0.85;;
46719;SDS011;32452;51.382;-0.002;2023-04-06T14:12:36;3.78;;;1.17;;
46719;SDS011;32452;51.382;-0.002;2023-04-06T14:15:21;4.07;;;1.20;;
46719;SDS011;32452;51.382;-0.002;2023-04-06T14:18:08;6.05;;;1.48;;
46719;SDS011;32452;51.382;-0.002;2023-04-06T14:20:54;3.15;;;1.40;;
46719;SDS011;32452;51.382;-0.002;2023-04-06T14:23:40;5.07;;;1.17;;
46719;SDS011;32452;51.382;-0.002;2023-04-06T14:26:26;6.38;;;1.40;;
46719;SDS011;32452;51.382;-0.002;2023-04-06T14:29:12;4.25;;;1.20;;
46719;SDS011;32452;51.382;-0.002;2023-04-06T14:31:58;6.28;;;1.55;;
46719;SDS011;32452;51.382;-0.002;2023-04-06T14:34:46;5.25;;;1.20;;
46719;SDS011;32452;51.382;-0.002;2023-04-06T14:37:32;4.47;;;1.75;;
46719;SDS011;32452;51.382;-0.002;2023-04-06T14:40:17;4.75;;;1.50;;
46719;SDS011;32452;51.382;-0.002;2023-04-06T14:43:03;6.78;;;1.58;;
46719;SDS011;32452;51.382;-0.002;2023-04-06T14:45:49;12.38;;;2.10;;
46719;SDS011;32452;51.382;-0.002;2023-04-06T14:48:35;8.73;;;1.83;;
46719;SDS011;32452;51.382;-0.002;2023-04-06T14:51:21;9.10;;;1.80;;
46719;SDS011;32452;51.382;-0.002;2023-04-06T14:54:09;4.53;;;1.48;;
46719;SDS011;32452;51.382;-0.002;2023-04-06T14:56:54;7.88;;;1.80;;
46719;SDS011;32452;51.382;-0.002;2023-04-06T14:59:40;6.60;;;1.60;;
46719;SDS011;32452;51.382;-0.002;2023-04-06T15:02:26;5.35;;;1.17;;
46719;SDS011;32452;51.382;-0.002;2023-04-06T15:05:12;5.45;;;1.35;;
46719;SDS011;32452;51.382;-0.002;2023-04-06T15:07:57;2.20;;;0.98;;
46719;SDS011;32452;51.382;-0.002;2023-04-06T15:10:43;3.97;;;0.93;;
46719;SDS011;32452;51.382;-0.002;2023-04-06T15:13:29;4.60;;;0.98;;
46719;SDS011;32452;51.382;-0.002;2023-04-06T15:16:15;2.75;;;1.02;;
46719;SDS011;32452;51.382;-0.002;2023-04-06T15:19:01;2.72;;;1.08;;
46719;SDS011;32452;51.382;-0.002;2023-04-06T15:21:47;2.90;;;1.00;;
46719;SDS011;32452;51.382;-0.002;2023-04-06T15:24:32;3.92;;;1.00;;
46719;SDS011;32452;51.382;-0.002;2023-04-06T15:27:18;2.72;;;1.30;;
46719;SDS011;32452;51.382;-0.002;2023-04-06T15:30:04;4.30;;;1.23;;
46719;SDS011;32452;51.382;-0.002;2023-04-06T15:33:00;4.05;;;1.25;;
46719;SDS011;32452;51.382;-0.002;2023-04-06T15:35:54;3.03;;;1.30;;
46719;SDS011;32452;51.382;-0.002;2023-04-06T15:38:40;7.80;;;1.92;;
46719;SDS011;32452;51.382;-0.002;2023-04-06T15:41:26;6.35;;;1.20;;
46719;SDS011;32452;51.382;-0.002;2023-04-06T15:44:12;3.72;;;1.38;;
46719;SDS011;32452;51.382;-0.002;2023-04-06T15:46:58;4.55;;;1.20;;
46719;SDS011;32452;51.382;-0.002;2023-04-06T15:49:44;6.80;;;1.85;;
46719;SDS011;32452;51.382;-0.002;2023-04-06T15:52:30;5.60;;;1.85;;
46719;SDS011;32452;51.382;-0.002;2023-04-06T15:55:16;3.15;;;1.60;;
46719;SDS011;32452;51.382;-0.002;2023-04-06T15:58:01;9.23;;;1.90;;
46719;SDS011;32452;51.382;-0.002;2023-04-06T16:00:47;5.03;;;1.80;;
46719;SDS011;32452;51.382;-0.002;2023-04-06T16:03:33;6.43;;;2.30;;
46719;SDS011;32452;51.382;-0.002;2023-04-06T16:06:19;7.07;;;2.78;;
46719;SDS011;32452;51.382;-0.002;2023-04-06T16:09:04;6.55;;;1.95;;
46719;SDS011;32452;51.382;-0.002;2023-04-06T16:11:50;6.75;;;2.50;;
46719;SDS011;32452;51.382;-0.002;2023-04-06T16:14:36;4.20;;;1.77;;
46719;SDS011;32452;51.382;-0.002;2023-04-06T16:17:21;4.20;;;2.00;;
46719;SDS011;32452;51.382;-0.002;2023-04-06T16:20:07;5.68;;;2.10;;
46719;SDS011;32452;51.382;-0.002;2023-04-06T16:22:53;4.53;;;2.30;;
46719;SDS011;32452;51.382;-0.002;2023-04-06T16:25:39;4.00;;;1.48;;